Time;durP1;ratioP1;P1;durP2;ratioP2;P2;SDS_P1;SDS_P2;PMS_P1;PMS_P2;Temp;Humidity;BMP_temperature;BMP_pressure;BME280_temperature;BME280_humidity;BME280_pressure;Samples;Min_cycle;Max_cycle;Signal;HPM_P1;HPM_P2
2021/01/20 00:00:43;;;;;;;125.70;61.42;;;;;;;0.41;84.98;99903.39;1689738;82;28502;-81
2021/01/20 00:03:10;;;;;;;122.87;60.15;;;;;;;0.43;85.03;99898.81;1724936;82;26040;-83
2021/01/20 00:05:37;;;;;;;117.77;61.25;;;;;;;0.46;84.99;99905.13;1654276;82;26487;-82
2021/01/20 00:08:05;;;;;;;123.28;61.18;;;;;;;0.48;85.06;99903.19;1691295;82;25811;-80
2021/01/20 00:10:32;;;;;;;118.45;57.60;;;;;;;0.52;85.06;99899.78;1692584;81;25883;-80
2021/01/20 00:13:00;;;;;;;108.03;56.23;;;;;;;0.54;85.11;99896.04;1741582;81;28419;-80
2021/01/20 00:15:27;;;;;;;102.02;52.43;;;;;;;0.59;85.14;99900.89;1720358;81;25403;-80
2021/01/20 00:17:54;;;;;;;103.30;51.05;;;;;;;0.60;85.15;99900.74;1706159;81;25894;-81
2021/01/20 00:20:22;;;;;;;106.58;53.60;;;;;;;0.65;85.23;99895.05;1712317;81;25864;-80
2021/01/20 00:22:49;;;;;;;107.43;55.73;;;;;;;0.71;85.31;99907.66;1741640;81;26114;-81
2021/01/20 00:25:18;;;;;;;110.90;53.35;;;;;;;0.74;85.41;99909.55;1700540;81;27723;-80
2021/01/20 00:27:46;;;;;;;101.02;52.08;;;;;;;0.76;85.45;99908.08;1732952;81;26093;-80
2021/01/20 00:30:15;;;;;;;97.55;48.38;;;;;;;0.79;85.41;99902.03;1710884;82;25939;-82
2021/01/20 00:32:42;;;;;;;95.85;49.10;;;;;;;0.83;85.37;99904.39;1732903;81;26156;-82
2021/01/20 00:35:13;;;;;;;96.67;51.20;;;;;;;0.85;85.50;99901.13;1685409;81;25831;-81
2021/01/20 00:37:40;;;;;;;;;;;;;;;0.84;85.47;99898.12;1712532;81;27548;-83
2021/01/20 00:40:08;;;;;;;94.40;51.53;;;;;;;0.82;85.55;99895.64;1737665;81;25846;-81
2021/01/20 00:42:36;;;;;;;95.92;49.60;;;;;;;0.81;85.60;99894.48;1690335;82;25974;-81
2021/01/20 00:45:05;;;;;;;93.47;46.92;;;;;;;0.81;85.58;99890.05;1692958;81;25897;-81
2021/01/20 00:47:33;;;;;;;90.72;47.03;;;;;;;0.86;85.61;99897.50;1717061;81;25755;-80
2021/01/20 00:50:00;;;;;;;85.67;42.78;;;;;;;0.89;85.71;99891.48;1710594;81;27506;-81
2021/01/20 00:52:28;;;;;;;88.55;45.85;;;;;;;0.93;85.65;99885.42;1716148;82;26754;-81
2021/01/20 00:54:55;;;;;;;82.78;43.85;;;;;;;0.93;85.75;99884.11;1690981;81;25907;-81
2021/01/20 00:57:23;;;;;;;89.15;45.28;;;;;;;0.92;85.73;99880.63;1724628;81;26163;-81
2021/01/20 00:59:50;;;;;;;94.55;46.83;;;;;;;0.93;85.79;99884.11;1722397;81;25610;-81
2021/01/20 01:02:18;;;;;;;87.15;43.83;;;;;;;0.93;85.77;99882.30;1719075;81;26834;-81
2021/01/20 01:04:46;;;;;;;83.10;43.17;;;;;;;0.92;85.81;99881.95;1732653;81;25766;-80
2021/01/20 01:07:14;;;;;;;81.87;40.28;;;;;;;0.93;85.97;99881.47;1698497;81;25745;-81
2021/01/20 01:09:42;;;;;;;85.05;43.02;;;;;;;0.94;85.88;99880.51;1696251;83;25858;-81
2021/01/20 01:12:25;;;;;;;86.05;42.50;;;;;;;0.98;85.92;99873.48;1824184;77;25766;-81
2021/01/20 01:14:53;;;;;;;85.05;43.95;;;;;;;0.92;85.89;99871.41;1777935;78;25943;-81
2021/01/20 01:17:31;;;;;;;83.22;43.28;;;;;;;0.97;85.99;99867.02;1832110;77;25692;-82
2021/01/20 01:19:59;;;;;;;83.52;39.85;;;;;;;0.92;86.07;99864.00;1802942;78;26428;-82
2021/01/20 01:22:27;;;;;;;72.97;40.08;;;;;;;0.92;86.11;99867.95;1706008;82;28194;-80
2021/01/20 01:24:55;;;;;;;70.15;38.00;;;;;;;0.91;86.32;99864.96;1703343;81;26008;-82
2021/01/20 01:27:22;;;;;;;74.12;39.50;;;;;;;0.90;86.21;99868.08;1718930;81;26116;-80
2021/01/20 01:29:50;;;;;;;73.30;38.17;;;;;;;0.92;86.18;99861.37;1701650;81;25756;-81
2021/01/20 01:32:27;;;;;;;73.75;37.42;;;;;;;0.99;86.20;99863.75;1856523;76;25699;-82
2021/01/20 01:34:55;;;;;;;80.10;38.10;;;;;;;0.94;86.23;99855.46;1747593;80;26304;-80
2021/01/20 01:37:23;;;;;;;78.80;40.28;;;;;;;0.93;86.24;99851.98;1740219;81;27523;-81
2021/01/20 01:40:08;;;;;;;71.55;36.28;;;;;;;0.99;86.31;99849.25;1833365;77;25706;-81
2021/01/20 01:42:37;;;;;;;71.60;38.78;;;;;;;0.92;86.26;99852.95;1762288;80;25871;-82
2021/01/20 01:45:06;;;;;;;73.75;37.10;;;;;;;0.91;86.32;99859.21;1762150;78;27538;-83
2021/01/20 01:47:33;;;;;;;75.70;38.42;;;;;;;0.94;86.36;99858.09;1733298;80;25927;-81
2021/01/20 01:50:12;;;;;;;69.05;36.03;;;;;;;1.02;86.36;99860.84;1858564;76;25742;-81
2021/01/20 01:52:41;;;;;;;74.60;37.80;;;;;;;0.99;86.34;99861.95;1805730;77;25754;-82
2021/01/20 01:55:26;;;;;;;71.35;36.90;;;;;;;0.99;86.24;99861.11;1813741;77;27597;-81
2021/01/20 01:57:58;;;;;;;64.77;34.85;;;;;;;0.98;86.24;99855.03;1798472;77;26390;-81
2021/01/20 02:00:26;;;;;;;70.65;35.90;;;;;;;0.99;86.29;99859.31;1825758;77;25654;-81
2021/01/20 02:02:59;;;;;;;66.50;35.25;;;;;;;1.00;86.23;99864.11;1794244;78;25870;-81
2021/01/20 02:05:28;;;;;;;65.70;35.10;;;;;;;0.98;86.32;99855.03;1761365;78;25913;-81
2021/01/20 02:07:57;;;;;;;63.87;33.00;;;;;;;0.99;86.35;99860.63;1823917;77;27256;-81
2021/01/20 02:10:26;;;;;;;63.42;34.03;;;;;;;0.99;86.30;99863.27;1826136;77;25759;-81
2021/01/20 02:13:18;;;;;;;64.65;33.58;;;;;;;0.98;86.37;99853.72;1797315;77;25888;-81
2021/01/20 02:16:20;;;;;;;69.25;34.43;;;;;;;1.03;86.41;99855.41;1812606;78;26514;-81
2021/01/20 02:18:56;;;;;;;54.03;31.10;;;;;;;0.98;86.48;99849.76;1730927;80;25846;-81
2021/01/20 02:21:49;;;;;;;51.30;28.65;;;;;;;0.98;86.44;99851.08;1745184;80;27538;-82
2021/01/20 02:25:03;;;;;;;48.60;27.32;;;;;;;1.00;86.46;99855.72;1757342;77;26603;-81
2021/01/20 02:28:16;;;;;;;46.20;27.35;;;;;;;1.10;86.46;99855.66;1803684;79;25741;-81
2021/01/20 02:30:47;;;;;;;49.48;28.05;;;;;;;1.02;86.46;99851.13;1784175;79;25736;-81
2021/01/20 02:33:26;;;;;;;47.20;27.37;;;;;;;1.09;86.51;99848.75;1831289;77;26069;-81
2021/01/20 02:36:03;;;;;;;41.35;25.23;;;;;;;1.05;86.57;99856.09;1760974;80;25842;-81
2021/01/20 02:38:33;;;;;;;41.20;24.67;;;;;;;1.07;86.56;99852.83;1774038;78;28206;-81
2021/01/20 02:41:13;;;;;;;48.98;28.60;;;;;;;1.12;86.51;99848.44;1794594;79;25893;-81
2021/01/20 02:43:43;;;;;;;46.63;27.00;;;;;;;1.07;86.55;99852.02;1719387;80;25878;-81
2021/01/20 02:46:26;;;;;;;44.23;27.35;;;;;;;1.13;86.57;99842.20;1780718;79;25818;-80
2021/01/20 02:48:56;;;;;;;46.80;28.12;;;;;;;1.08;86.68;99850.55;1744539;80;26007;-81
2021/01/20 02:52:07;;;;;;;48.90;28.25;;;;;;;1.08;86.67;99847.91;1735993;80;28458;-81
2021/01/20 02:55:04;;;;;;;46.90;26.02;;;;;;;1.15;86.69;99845.52;1831300;77;25620;-80
2021/01/20 02:58:04;;;;;;;46.37;28.60;;;;;;;1.14;86.69;99839.41;1820751;77;26551;-81
2021/01/20 03:00:35;;;;;;;46.88;26.93;;;;;;;1.10;86.82;99851.23;1809724;78;25821;-82
2021/01/20 03:03:13;;;;;;;45.65;26.48;;;;;;;1.11;86.80;99850.75;1810838;78;27730;-81
2021/01/20 03:05:43;;;;;;;43.75;25.97;;;;;;;1.12;86.80;99852.39;1780320;78;25972;-81
2021/01/20 03:08:11;;;;;;;40.00;24.02;;;;;;;1.13;86.74;99856.23;1835697;77;32573;-80
2021/01/20 03:10:39;;;;;;;46.90;27.60;;;;;;;1.13;86.67;99856.23;1769870;78;26450;-80
2021/01/20 03:13:06;;;;;;;47.17;26.80;;;;;;;1.13;86.73;99857.55;1794800;78;26504;-80
2021/01/20 03:15:38;;;;;;;43.10;26.10;;;;;;;1.14;86.68;99857.03;1769628;78;28635;-85
2021/01/20 03:18:06;;;;;;;42.40;24.85;;;;;;;1.15;86.73;99860.03;1827685;77;26308;-82
2021/01/20 03:20:33;;;;;;;44.75;26.50;;;;;;;1.14;86.77;99857.88;1777374;78;25938;-82
2021/01/20 03:23:00;;;;;;;43.13;26.30;;;;;;;1.14;86.77;99854.39;1794982;78;26203;-81
2021/01/20 03:25:28;;;;;;;49.30;29.02;;;;;;;1.15;86.72;99855.59;1825297;77;25743;-80
2021/01/20 03:27:55;;;;;;;51.58;29.65;;;;;;;1.15;86.81;99857.39;1825072;77;27518;-82
2021/01/20 03:30:22;;;;;;;45.90;28.07;;;;;;;1.13;86.74;99854.91;1798990;78;25984;-82
2021/01/20 03:32:49;;;;;;;44.38;28.20;;;;;;;1.13;86.74;99847.48;1778164;78;25769;-81
2021/01/20 03:35:17;;;;;;;47.98;29.67;;;;;;;1.13;86.66;99854.91;1821811;77;26355;-81
2021/01/20 03:37:44;;;;;;;49.45;28.83;;;;;;;1.13;86.73;99852.27;1827462;77;26156;-81
2021/01/20 03:40:12;;;;;;;52.58;30.15;;;;;;;1.14;86.79;99846.00;1774130;78;26973;-80
2021/01/20 03:42:39;;;;;;;46.48;27.85;;;;;;;1.16;86.85;99848.48;1798584;77;25730;-82
2021/01/20 03:45:08;;;;;;;39.60;24.57;;;;;;;1.18;86.82;99851.33;1827670;77;26314;-81
2021/01/20 03:47:35;;;;;;;37.67;23.70;;;;;;;1.20;86.73;99846.73;1827405;77;25845;-81
2021/01/20 03:50:03;;;;;;;40.28;25.20;;;;;;;1.22;86.76;99850.06;1769290;78;26165;-83
2021/01/20 03:52:30;;;;;;;36.98;23.83;;;;;;;1.25;86.78;99859.49;1796623;78;27692;-80
2021/01/20 03:54:57;;;;;;;35.95;23.47;;;;;;;1.28;86.73;99852.11;1828380;77;26650;-81
2021/01/20 03:57:25;;;;;;;40.63;26.10;;;;;;;1.32;86.66;99850.03;1824743;77;26588;-81
2021/01/20 03:59:52;;;;;;;38.28;23.27;;;;;;;1.32;86.67;99838.16;1782010;77;25998;-83
2021/01/20 04:02:19;;;;;;;38.53;24.20;;;;;;;1.31;86.65;99837.31;1723203;81;25845;-81
2021/01/20 04:04:48;;;;;;;38.15;25.72;;;;;;;1.33;86.68;99829.25;1754888;80;27080;-81
2021/01/20 04:07:15;;;;;;;39.73;25.30;;;;;;;1.34;86.77;99838.84;1761014;80;25737;-81
2021/01/20 04:09:43;;;;;;;36.70;24.02;;;;;;;1.32;86.67;99848.71;1711693;81;25887;-82
2021/01/20 04:12:10;;;;;;;34.63;22.50;;;;;;;1.31;86.64;99848.35;1746202;81;26244;-81
2021/01/20 04:14:38;;;;;;;37.53;23.47;;;;;;;1.32;86.64;99850.03;1745752;79;25879;-81
2021/01/20 04:17:05;;;;;;;40.85;23.83;;;;;;;1.31;86.68;99849.67;1769678;79;28320;-82
2021/01/20 04:19:32;;;;;;;43.85;25.45;;;;;;;1.31;86.66;99847.03;1710019;81;25900;-82
2021/01/20 04:22:00;;;;;;;36.53;23.22;;;;;;;1.30;86.74;99837.00;1737547;79;26395;-83
2021/01/20 04:24:27;;;;;;;38.60;24.90;;;;;;;1.31;86.75;99843.08;1735221;81;25902;-83
2021/01/20 04:26:54;;;;;;;40.38;24.23;;;;;;;1.32;86.67;99840.80;1756444;81;25692;-82
2021/01/20 04:29:21;;;;;;;38.50;23.40;;;;;;;1.33;86.69;99838.00;1711487;80;27491;-81
2021/01/20 04:31:49;;;;;;;40.35;26.20;;;;;;;1.33;86.73;99835.84;1717915;81;26045;-81
2021/01/20 04:34:16;;;;;;;44.40;27.05;;;;;;;1.34;86.71;99828.28;1745221;81;26180;-81
2021/01/20 04:36:44;;;;;;;43.55;28.60;;;;;;;1.34;86.75;99827.80;1768475;81;25800;-81
2021/01/20 04:39:11;;;;;;;45.43;30.32;;;;;;;1.34;86.73;99831.77;1731705;79;26404;-81
2021/01/20 04:41:38;;;;;;;43.83;26.77;;;;;;;1.35;86.64;99829.93;1718893;79;27539;-82
2021/01/20 04:44:06;;;;;;;45.05;31.90;;;;;;;1.35;86.64;99823.33;1749149;79;25866;-83
2021/01/20 04:46:35;;;;;;;42.10;26.85;;;;;;;1.35;86.72;99828.13;1780934;79;25806;-83
2021/01/20 04:49:03;;;;;;;41.23;26.77;;;;;;;1.35;86.62;99824.66;1712981;81;25380;-82
2021/01/20 04:51:33;;;;;;;50.67;29.77;;;;;;;1.34;86.59;99821.20;1748376;81;25433;-82
2021/01/20 04:54:01;;;;;;;42.60;27.02;;;;;;;1.34;86.60;99819.89;1759038;79;28280;-83
2021/01/20 04:56:30;;;;;;;42.85;25.50;;;;;;;1.33;86.59;99818.22;1740099;80;26192;-81
2021/01/20 04:58:57;;;;;;;39.38;23.98;;;;;;;1.31;86.62;99821.97;1758020;80;25879;-81
2021/01/20 05:01:25;;;;;;;37.53;24.27;;;;;;;1.31;86.61;99820.66;1755780;80;25870;-80
2021/01/20 05:03:54;;;;;;;36.17;23.20;;;;;;;1.32;86.66;99823.65;1767474;80;25745;-83
2021/01/20 05:06:22;;;;;;;40.95;24.75;;;;;;;1.31;86.63;99825.45;1776497;80;27787;-82
2021/01/20 05:08:49;;;;;;;36.35;24.25;;;;;;;1.31;86.65;99820.17;1712863;80;26399;-83
2021/01/20 05:11:16;;;;;;;35.43;24.18;;;;;;;1.30;86.70;99826.44;1719285;80;25894;-82
2021/01/20 05:13:44;;;;;;;38.83;22.80;;;;;;;1.29;86.70;99826.09;1764320;80;26537;-82
2021/01/20 05:16:26;;;;;;;38.90;24.50;;;;;;;1.28;86.76;99820.97;1768492;80;25401;-83
2021/01/20 05:18:53;;;;;;;35.00;20.68;;;;;;;1.26;86.76;99831.64;1746232;80;27520;-83
2021/01/20 05:21:21;;;;;;;39.92;25.23;;;;;;;1.27;86.79;99834.64;1718187;80;25890;-81
2021/01/20 05:23:48;;;;;;;42.58;25.50;;;;;;;1.25;86.82;99829.16;1743885;80;25905;-82
2021/01/20 05:26:16;;;;;;;42.62;25.65;;;;;;;1.23;86.78;99829.31;1742268;80;26301;-82
2021/01/20 05:28:43;;;;;;;39.88;23.92;;;;;;;1.22;86.77;99825.52;1711173;80;25905;-82
2021/01/20 05:31:16;;;;;;;32.67;22.32;;;;;;;1.20;86.86;99831.39;1739592;81;28347;-81
2021/01/20 05:33:43;;;;;;;34.18;22.32;;;;;;;1.20;86.92;99832.71;1746485;81;25907;-82
2021/01/20 05:36:13;;;;;;;35.00;22.37;;;;;;;1.23;86.95;99832.43;1771055;80;26579;-83
2021/01/20 05:38:50;;;;;;;34.55;22.20;;;;;;;1.26;86.96;99840.06;1725449;80;26485;-82
2021/01/20 05:41:29;;;;;;;30.97;19.77;;;;;;;1.26;86.93;99836.91;1722826;80;25768;-81
2021/01/20 05:44:12;;;;;;;34.73;20.72;;;;;;;1.28;87.00;99838.92;1770694;80;26269;-81
2021/01/20 05:46:43;;;;;;;33.95;22.55;;;;;;;1.30;87.04;99830.88;1775875;80;25962;-80
2021/01/20 05:49:28;;;;;;;37.60;23.40;;;;;;;1.32;87.05;99832.40;1742226;80;25867;-81
2021/01/20 05:51:56;;;;;;;37.63;22.22;;;;;;;1.34;87.07;99833.08;1724582;80;25929;-81
2021/01/20 05:54:38;;;;;;;32.65;20.25;;;;;;;1.36;87.05;99828.48;1740808;81;26007;-81
2021/01/20 05:57:14;;;;;;;38.35;23.22;;;;;;;1.37;87.02;99831.45;1770110;80;27847;-81
2021/01/20 05:59:43;;;;;;;36.53;21.37;;;;;;;1.39;87.10;99836.09;1709798;81;26454;-81
2021/01/20 06:02:13;;;;;;;32.67;20.85;;;;;;;1.42;87.10;99838.93;1733833;81;25381;-81
2021/01/20 06:04:42;;;;;;;37.03;22.17;;;;;;;1.44;87.07;99835.66;1776828;80;26331;-81
2021/01/20 06:07:15;;;;;;;43.23;23.67;;;;;;;1.46;87.09;99837.66;1736266;80;25375;-81
2021/01/20 06:09:46;;;;;;;39.53;22.27;;;;;;;1.46;87.06;99841.13;1710193;81;27546;-81
2021/01/20 06:12:14;;;;;;;39.00;22.05;;;;;;;1.49;87.08;99838.20;1740027;81;26443;-81
2021/01/20 06:14:43;;;;;;;37.80;21.15;;;;;;;1.51;87.04;99840.21;1771010;80;25850;-81
2021/01/20 06:17:33;;;;;;;36.03;22.35;;;;;;;1.53;87.05;99843.53;1765742;80;25390;-82
2021/01/20 06:20:07;;;;;;;40.15;22.50;;;;;;;1.56;87.05;99844.53;1754786;80;32607;-81
2021/01/20 06:22:42;;;;;;;38.83;22.67;;;;;;;1.56;87.01;99845.86;1730368;80;27550;-81
2021/01/20 06:25:27;;;;;;;36.15;22.25;;;;;;;1.58;87.03;99847.86;1734102;81;25833;-82
2021/01/20 06:28:09;;;;;;;36.95;22.22;;;;;;;1.61;87.03;99843.26;1765691;80;26439;-82
2021/01/20 06:30:47;;;;;;;35.35;21.05;;;;;;;1.61;86.98;99834.86;1713728;81;25958;-80
2021/01/20 06:33:16;;;;;;;31.75;19.35;;;;;;;1.63;87.06;99842.63;1739519;81;26236;-81
2021/01/20 06:35:47;;;;;;;29.45;18.45;;;;;;;1.65;87.10;99838.86;1743087;80;27538;-82
2021/01/20 06:38:37;;;;;;;32.73;19.45;;;;;;;1.68;87.04;99840.37;1733303;81;25830;-81
2021/01/20 06:41:38;;;;;;;35.10;19.85;;;;;;;1.67;87.03;99842.17;1761461;80;25836;-81
2021/01/20 06:44:12;;;;;;;32.55;20.05;;;;;;;1.68;87.01;99837.73;1742278;80;26429;-81
2021/01/20 06:47:00;;;;;;;31.02;20.43;;;;;;;1.67;87.00;99840.05;1717505;80;25856;-81
2021/01/20 06:49:30;;;;;;;38.95;22.17;;;;;;;1.69;87.07;99840.73;1733461;81;27085;-81
2021/01/20 06:52:16;;;;;;;32.75;21.37;;;;;;;1.70;87.10;99843.70;1757187;80;25824;-81
2021/01/20 06:54:47;;;;;;;35.90;21.42;;;;;;;1.72;87.09;99841.73;1744265;81;25851;-82
2021/01/20 06:57:19;;;;;;;37.78;22.25;;;;;;;1.73;87.07;99846.89;1744460;79;26183;-79
2021/01/20 07:00:14;;;;;;;33.48;20.48;;;;;;;1.80;87.09;99846.61;1807026;77;25307;-81
2021/01/20 07:03:03;;;;;;;35.80;22.42;;;;;;;1.77;87.05;99845.61;1775309;78;25416;-81
2021/01/20 07:05:39;;;;;;;35.48;23.18;;;;;;;1.75;86.93;99840.97;1763602;79;28427;-80
2021/01/20 07:08:09;;;;;;;40.17;23.67;;;;;;;1.76;87.06;99841.77;1748749;80;26522;-81
2021/01/20 07:11:00;;;;;;;36.05;22.73;;;;;;;1.79;87.00;99838.85;1753318;80;26169;-81
2021/01/20 07:13:38;;;;;;;35.70;21.82;;;;;;;1.77;86.94;99839.49;1666189;84;26044;-81
2021/01/20 07:16:08;;;;;;;30.57;20.08;;;;;;;1.77;86.98;99838.17;1680942;81;25758;-81
2021/01/20 07:18:40;;;;;;;29.20;18.97;;;;;;;1.77;87.08;99836.85;1710335;81;28379;-81
2021/01/20 07:21:08;;;;;;;29.57;17.67;;;;;;;1.78;87.11;99838.02;1742189;81;26374;-81
2021/01/20 07:23:36;;;;;;;30.17;17.27;;;;;;;1.78;87.13;99839.33;1690085;82;25409;-81
2021/01/20 07:26:05;;;;;;;33.28;18.55;;;;;;;1.78;87.20;99832.73;1690290;81;26094;-82
2021/01/20 07:28:35;;;;;;;36.48;19.02;;;;;;;1.79;87.30;99830.45;1730091;81;26034;-81
2021/01/20 07:31:14;;;;;;;32.85;18.95;;;;;;;1.82;87.36;99843.33;1749881;81;28489;-82
2021/01/20 07:33:51;;;;;;;34.48;18.67;;;;;;;1.86;87.36;99850.48;1692794;81;26191;-81
2021/01/20 07:36:23;;;;;;;39.60;19.90;;;;;;;1.85;87.33;99856.73;1706034;81;26062;-80
2021/01/20 07:38:50;;;;;;;37.17;19.82;;;;;;;1.84;87.33;99853.25;1736807;81;25904;-80
2021/01/20 07:41:25;;;;;;;35.05;19.23;;;;;;;1.85;87.44;99847.48;1738359;81;26409;-81
2021/01/20 07:44:07;;;;;;;31.80;17.55;;;;;;;1.86;87.60;99846.52;1664581;81;28511;-81
2021/01/20 07:46:35;;;;;;;34.43;17.98;;;;;;;1.88;87.72;99851.97;1718255;81;25856;-82
2021/01/20 07:49:14;;;;;;;33.65;19.27;;;;;;;1.88;87.62;99855.13;1681968;82;25762;-82
2021/01/20 07:51:43;;;;;;;;;;;;;;;1.90;87.67;99854.48;1744439;81;25719;-81
2021/01/20 07:54:10;;;;;;;36.98;20.92;;;;;;;1.92;87.68;99859.96;1693920;82;25834;-80
2021/01/20 07:56:37;;;;;;;30.05;18.90;;;;;;;1.90;87.75;99855.32;1705384;81;27543;-81
2021/01/20 07:59:17;;;;;;;30.35;18.17;;;;;;;1.93;87.73;99855.48;1706093;81;25924;-82
2021/01/20 08:01:45;;;;;;;33.70;19.42;;;;;;;1.93;87.78;99851.05;1714166;81;25795;-81
2021/01/20 08:04:21;;;;;;;34.10;19.87;;;;;;;1.94;87.79;99855.36;1690314;81;25941;-82
2021/01/20 08:06:49;;;;;;;31.95;19.95;;;;;;;1.99;87.81;99858.36;1710025;81;25972;-81
2021/01/20 08:09:17;;;;;;;42.13;22.07;;;;;;;1.99;87.78;99854.39;1735501;81;27537;-82
2021/01/20 08:11:47;;;;;;;37.15;20.95;;;;;;;1.99;87.80;99858.36;1688701;82;25935;-80
2021/01/20 08:14:16;;;;;;;35.80;21.73;;;;;;;2.01;87.82;99866.16;1703281;81;26073;-83
2021/01/20 08:16:43;;;;;;;31.80;20.17;;;;;;;2.03;87.84;99857.59;1725674;81;25878;-82
2021/01/20 08:19:11;;;;;;;35.20;20.08;;;;;;;2.04;87.89;99864.52;1709022;81;25892;-81
2021/01/20 08:21:39;;;;;;;30.05;17.85;;;;;;;2.07;87.99;99868.19;1694108;81;28537;-84
2021/01/20 08:24:08;;;;;;;34.53;19.12;;;;;;;2.08;88.21;99869.34;1737257;81;26120;-80
2021/01/20 08:26:39;;;;;;;38.55;21.55;;;;;;;2.10;88.04;99873.98;1708033;81;25736;-80
2021/01/20 08:29:10;;;;;;;30.02;17.50;;;;;;;2.13;88.09;99865.78;1712292;81;26649;-80
2021/01/20 08:31:42;;;;;;;33.73;20.15;;;;;;;2.16;88.00;99869.94;1712839;81;25993;-81
2021/01/20 08:34:24;;;;;;;32.15;19.27;;;;;;;2.16;87.95;99869.42;1686769;81;27560;-80
2021/01/20 08:37:00;;;;;;;33.88;21.23;;;;;;;2.19;87.89;99870.94;1709736;82;26118;-82
2021/01/20 08:39:29;;;;;;;33.55;20.25;;;;;;;2.22;87.96;99873.29;1706578;82;25844;-81
2021/01/20 08:42:32;;;;;;;33.78;21.82;;;;;;;2.25;87.92;99876.93;1711605;82;25644;-79
2021/01/20 08:45:24;;;;;;;39.50;22.32;;;;;;;2.29;87.89;99879.61;1742109;81;25745;-81
2021/01/20 08:48:10;;;;;;;39.63;23.98;;;;;;;2.30;87.93;99873.35;1721606;81;27537;-81
2021/01/20 08:50:45;;;;;;;36.55;22.93;;;;;;;2.33;88.04;99885.77;1745352;81;25501;-81
2021/01/20 08:53:25;;;;;;;45.25;24.05;;;;;;;2.37;87.99;99886.31;1711160;81;25787;-80
2021/01/20 08:55:55;;;;;;;36.73;22.27;;;;;;;2.39;87.96;99890.95;1736477;81;25374;-82
2021/01/20 08:58:31;;;;;;;41.45;24.87;;;;;;;2.42;87.95;99887.18;1707199;82;25473;-81
2021/01/20 09:01:15;;;;;;;38.23;23.05;;;;;;;2.44;87.88;99891.82;1694681;81;28267;-82
2021/01/20 09:03:59;;;;;;;37.53;22.27;;;;;;;2.46;87.84;99901.23;1708756;82;25728;-83
2021/01/20 09:06:29;;;;;;;37.73;23.22;;;;;;;2.50;87.78;99907.91;1693850;81;25866;-82
2021/01/20 09:08:57;;;;;;;40.48;23.15;;;;;;;2.55;87.88;99902.97;1708556;82;26191;-82
2021/01/20 09:11:26;;;;;;;38.73;21.80;;;;;;;2.57;87.72;99906.28;1709159;82;26015;-81
2021/01/20 09:13:56;;;;;;;36.00;22.00;;;;;;;2.61;87.69;99902.87;1694191;82;27560;-82
2021/01/20 09:16:30;;;;;;;38.88;22.75;;;;;;;2.63;87.73;99900.38;1710064;82;26167;-82
2021/01/20 09:18:58;;;;;;;37.80;22.25;;;;;;;2.68;87.76;99902.09;1733520;81;25794;-82
2021/01/20 09:21:26;;;;;;;42.33;23.35;;;;;;;2.71;87.67;99890.38;1738642;81;25905;-81
2021/01/20 09:23:54;;;;;;;41.30;22.40;;;;;;;2.72;87.66;99892.86;1704593;81;26448;-82
2021/01/20 09:26:22;;;;;;;44.40;22.98;;;;;;;2.78;87.57;99887.47;1691449;82;28486;-82
2021/01/20 09:28:49;;;;;;;38.30;23.15;;;;;;;2.82;87.49;99895.42;1686799;81;25920;-81
2021/01/20 09:31:16;;;;;;;42.10;23.38;;;;;;;2.86;87.43;99891.00;1714481;81;26388;-81
2021/01/20 09:33:43;;;;;;;38.85;23.07;;;;;;;2.90;87.39;99891.02;1692007;82;26178;-82
2021/01/20 09:36:11;;;;;;;39.65;24.77;;;;;;;2.96;87.33;99892.20;1700080;81;25804;-82
2021/01/20 09:38:38;;;;;;;37.35;23.10;;;;;;;2.96;87.26;99887.75;1712436;81;28401;-81
2021/01/20 09:41:06;;;;;;;36.58;21.25;;;;;;;3.01;87.26;99892.58;1750782;81;25897;-79
2021/01/20 09:43:34;;;;;;;36.05;21.80;;;;;;;3.02;87.12;99884.48;1700481;81;26422;-83
2021/01/20 09:46:02;;;;;;;37.28;23.45;;;;;;;3.03;87.05;99890.61;1710459;81;25917;-82
2021/01/20 09:48:32;;;;;;;36.65;23.60;;;;;;;3.03;86.99;99886.64;1741182;81;25849;-82
2021/01/20 09:50:59;;;;;;;37.17;23.67;;;;;;;3.05;86.98;99891.28;1716578;81;27588;-82
2021/01/20 09:53:29;;;;;;;38.15;23.65;;;;;;;3.09;87.21;99886.01;1709522;81;25834;-81
2021/01/20 09:55:57;;;;;;;40.23;23.35;;;;;;;3.15;87.14;99885.38;1715336;81;25868;-82
2021/01/20 09:58:24;;;;;;;44.45;27.42;;;;;;;3.22;87.24;99877.16;1714620;81;25863;-82
2021/01/20 10:00:52;;;;;;;52.15;29.35;;;;;;;3.29;87.18;99881.33;1731651;81;25799;-82
2021/01/20 10:03:20;;;;;;;56.42;31.82;;;;;;;3.32;86.87;99875.70;1678014;81;28190;-80
2021/01/20 10:05:48;;;;;;;54.58;31.60;;;;;;;3.36;86.84;99887.66;1712736;82;25816;-81
2021/01/20 10:08:15;;;;;;;50.35;31.12;;;;;;;3.42;86.79;99883.86;1762891;80;25777;-81
2021/01/20 10:10:44;;;;;;;51.33;30.92;;;;;;;3.45;86.72;99891.49;1704884;82;25733;-81
2021/01/20 10:13:11;;;;;;;50.70;30.10;;;;;;;3.48;86.73;99887.22;1732364;80;26417;-82
2021/01/20 10:15:40;;;;;;;49.48;29.67;;;;;;;3.49;86.49;99884.89;1692215;81;27616;-82
2021/01/20 10:18:09;;;;;;;50.60;28.60;;;;;;;3.54;86.40;99880.44;1722088;81;25858;-80
2021/01/20 10:20:37;;;;;;;55.50;30.92;;;;;;;3.51;86.13;99871.48;1748710;81;25770;-81
2021/01/20 10:23:05;;;;;;;52.40;30.27;;;;;;;3.50;86.08;99871.16;1729495;81;25804;-82
2021/01/20 10:25:32;;;;;;;53.00;29.48;;;;;;;3.51;86.23;99863.05;1721414;81;25832;-81
2021/01/20 10:28:01;;;;;;;58.45;29.15;;;;;;;3.52;86.22;99864.72;1692289;83;27536;-82
2021/01/20 10:30:29;;;;;;;43.52;26.52;;;;;;;3.57;86.18;99860.28;1691812;83;25879;-81
2021/01/20 10:32:56;;;;;;;52.03;29.23;;;;;;;3.58;86.12;99863.25;1697226;81;25917;-81
2021/01/20 10:35:23;;;;;;;52.30;29.35;;;;;;;3.61;86.09;99860.29;1683624;81;25761;-82
2021/01/20 10:37:51;;;;;;;46.80;26.85;;;;;;;3.63;86.07;99856.50;1689197;81;25898;-82
2021/01/20 10:40:18;;;;;;;44.50;26.60;;;;;;;3.65;85.87;99858.98;1712854;81;27547;-81
2021/01/20 10:42:46;;;;;;;40.63;24.82;;;;;;;3.65;85.79;99857.16;1664173;81;26231;-81
2021/01/20 10:45:13;;;;;;;38.95;22.45;;;;;;;3.63;85.76;99856.50;1687164;81;25799;-82
2021/01/20 10:47:41;;;;;;;36.42;21.60;;;;;;;3.64;85.78;99860.78;1674885;81;25863;-81
2021/01/20 10:50:09;;;;;;;36.33;21.68;;;;;;;3.63;85.67;99864.93;1709179;81;25774;-82
2021/01/20 10:52:36;;;;;;;34.85;22.15;;;;;;;3.62;85.73;99852.66;1703274;81;27327;-82
2021/01/20 10:55:04;;;;;;;39.63;22.87;;;;;;;3.63;85.75;99850.36;1693806;81;25811;-83
2021/01/20 10:57:32;;;;;;;36.68;22.27;;;;;;;3.63;85.77;99848.55;1688292;82;26459;-83
2021/01/20 10:59:59;;;;;;;37.55;23.52;;;;;;;3.65;85.70;99850.55;1695563;81;25429;-83
2021/01/20 11:02:26;;;;;;;34.13;21.42;;;;;;;3.63;85.68;99842.42;1737805;81;26634;-82
2021/01/20 11:04:54;;;;;;;38.00;23.83;;;;;;;3.63;85.62;99841.94;1720550;81;28230;-84
2021/01/20 11:07:21;;;;;;;41.02;22.00;;;;;;;3.63;85.69;99844.58;1697917;81;26470;-82
2021/01/20 11:09:51;;;;;;;34.55;21.85;;;;;;;3.60;85.64;99836.11;1703273;81;25917;-82
2021/01/20 11:12:17;;;;;;;34.98;21.77;;;;;;;3.61;85.71;99830.67;1735048;81;25714;-83
2021/01/20 11:14:45;;;;;;;33.55;22.25;;;;;;;3.62;85.66;99824.86;1686674;81;25863;-82
2021/01/20 11:17:12;;;;;;;34.85;22.17;;;;;;;3.62;85.70;99825.70;1691639;82;27557;-83
2021/01/20 11:19:40;;;;;;;34.73;21.50;;;;;;;3.66;85.72;99816.92;1712988;81;25863;-82
2021/01/20 11:22:09;;;;;;;35.83;21.75;;;;;;;3.69;85.65;99817.94;1704004;82;25925;-82
2021/01/20 11:24:36;;;;;;;36.42;21.57;;;;;;;3.70;85.60;99815.64;1703162;81;26162;-83
2021/01/20 11:27:04;;;;;;;35.65;22.40;;;;;;;3.73;85.72;99816.13;1702603;81;26067;-82
2021/01/20 11:29:31;;;;;;;37.17;21.82;;;;;;;3.77;85.67;99813.97;1704184;81;27543;-83
2021/01/20 11:31:59;;;;;;;40.40;23.60;;;;;;;3.82;85.70;99810.35;1678884;82;25995;-84
2021/01/20 11:34:26;;;;;;;33.50;21.90;;;;;;;3.84;85.63;99809.20;1720854;81;26224;-83
2021/01/20 11:36:53;;;;;;;33.33;22.45;;;;;;;3.89;85.67;99815.34;1700844;82;25765;-82
2021/01/20 11:39:21;;;;;;;40.25;21.90;;;;;;;3.95;85.51;99815.17;1697423;82;25945;-78
2021/01/20 11:41:48;;;;;;;37.58;22.67;;;;;;;3.96;85.40;99813.67;1681845;83;50967;-79
2021/01/20 11:44:16;;;;;;;34.63;21.75;;;;;;;3.98;85.51;99809.03;1676525;84;25802;-77